Accueil
METAR-TAF:

METAR-TAF

Aéroports :

Aérodrome de Samedan-Engadin

Saint-Moritz, Suisse

latitude: 46-32-03N, longitude: 9-53-03E, altitude: 1707 m

Observation

Le bulletin a été fait il y a 17 minutes, à 21:20 UTC
Vent 3 kt de sud/sud-ouest
Température -11°C
Humidité 85%
Pression 1008 hPa
Visibilité: 5000 m
Nuages fragmentés
neige faible

METAR: LSZS 202120Z AUTO 21003KT 5000 -SN BKN/// M11/M13 Q1008 REFZDZ

Heure: 22:37 (21:37 UTC)

Prévision

Le bulletin a été fait il y a 7 heures et 12 minutes, à 14:25 UTC
Prévision valable du 20 à 15 UTC au 20 à 24 UTC
Vent 5 kt de sud
Visibilité: 8000 m
Quelques nuages à une hauteur de 3200 ft
Evoluant progressivement
du 20 à 15 UTC au 20 à 18 UTC
Visibilité 10 km ou plus
pas de nuages en-dessous de 1500 mètres et pas de cumulonimbus.

TAF: LSZS 201425Z 2015/2024 18005KT 8000 FEW032 TX00/2015Z BECMG 2015/2018 CAVOK

Observations et prévisions météorologiques de plus de 4000 aéroports (messages METAR et TAF).

Les stations disponibles sont représentées par des disques jaunes et rouges sur la carte.

Passer la souris dessus pour voir le nom de la station.

Cliquer dessus pour voir les observations et prévisions météorologiques.

Pour changer de carte: cliquez sur les boutons verts avec une croix noire pour zoomer, sur le bouton vert avec un tiret pour effectuer un zoom arrière, ou sur les flèches vertes pour les cartes adjacentes.


METAR-TAF: